Aérodrome :
LOGIN :

S'inscrire | Disclaimer

   EN    FR    IT 

 










Légende :    VFR   VFR Marginal   IFR   IFR Intensif   IFR Très Intensif
Visi : 
Plafond : 
>= 8 km
>= 3000ft
5 à 8 km
1000 à 3000 ft
1500m à 5 km
500 à 1000 ft
800 à 1500m
200 à 500 ft
< 800m
< 200 ft
Symboles :   Orages  Brouillard  Fortes neiges  Fortes précipitations  Vent > 20 kt
SIGMETs :   Divers  Orages  Givrage  Turbulence  Onde Orograph.  Cendres Volcan.






- Altitude de l'aérodrome : 39 ft
- Code IATA : ANR


EBAW - Anvers / Antwerpen Deurne

DERNIER METAR :
  • 232150Z AUTO 20008KT 9999 -RA FEW013/// SCT018/// 17/15 Q0999 RERA

METARs EXPIRÉS :
  • 232120Z AUTO 20010KT 6000 SHRA BKN002/// BKN044/// 17/15 Q0999 RESHRA
  • 232050Z 18007KT 9999 VCSH FEW031TCU BKN042 17/15 Q0999 TEMPO 4000 SHRA
  • 232020Z 24011KT 200V260 7000 -SHRA SCT030TCU BKN042 16/14 Q1000 TEMPO 4000 SHRA
  • 231950Z 21006KT 180V250 7000 -SHRA SCT040TCU BKN042 19/14 Q1000 TEMPO 3000 SHRA
  • 231920Z 20009KT 9999 FEW045 20/13 Q1000 TEMPO 4000 SHRA

TAF TAF EBAW
Valide du 23 à 21h jusqu'au 24 à 06h UTC


232000Z 2321/2406 20009KT 9999 BKN025
TEMPO 2321/2323 23015G25KT 4000 SHRA



MET'MAP, la Météo Aéronautique d'un coup d'oeil ! - Copyright ORBIFLY Décembre 2007 - Disclaimer

ORBIFLY MET'MAP TEAM :

Programmation & Développement : Alexandra Zaïnal
Sur une idée originale de : Baudouin d'Aumeries
Assistance à la programmation : Marc-Olivier Méhu
Soutien technique & logistique : Manuel Goepfert

Contact : metmap@orbifly.com




SOURCES & CREDITS :

   NOAA